Terminal Aerodrome Forecast
Issued by NWS

Home | Current Version | Previous Version | Text Only | Print | Product List | Glossary On
Versions: 1 2 3 4 5 6 7 8 9 10 11 12 13 14 15 16 17
290
FTUS41 KPBZ 241323 AAA
TAFFKL
TAF AMD
KFKL 241323Z 2413/2512 33005KT 5SM -RASN BR OVC005
      TEMPO 2413/2415 1/4SM SN FG
     FM242000 29005KT P6SM OVC010
     FM250900 22005KT P6SM BKN010
      AMD NOT SKED=

USA.gov is the U.S. government's official web portal to all federal, state and local government web resources and services.